createdAt,value
2022-09-09T00:00:28.202Z,27.15
2022-09-09T00:03:04.846Z,27.60
2022-09-09T00:05:40.316Z,27.35
2022-09-09T00:08:18.270Z,27.83
2022-09-09T00:10:46.416Z,28.90
2022-09-09T00:13:22.123Z,28.80
2022-09-09T00:15:59.878Z,27.45
2022-09-09T00:18:34.931Z,29.15
2022-09-09T00:21:08.505Z,27.90
2022-09-09T00:23:40.233Z,28.00
2022-09-09T00:26:16.367Z,27.35
2022-09-09T00:28:50.913Z,27.55
2022-09-09T00:31:25.262Z,26.75
2022-09-09T00:33:56.120Z,28.98
2022-09-09T00:36:29.313Z,28.77
2022-09-09T00:39:01.404Z,29.10
2022-09-09T00:41:43.707Z,28.95
2022-09-09T00:44:29.061Z,27.67
2022-09-09T00:47:10.880Z,28.92
2022-09-09T00:49:53.099Z,28.80
2022-09-09T00:52:34.617Z,28.63
2022-09-09T00:55:10.674Z,28.80
2022-09-09T00:57:38.836Z,28.40
2022-09-09T01:00:23.245Z,28.33
2022-09-09T01:03:15.675Z,27.77
2022-09-09T01:05:52.370Z,28.45
2022-09-09T01:08:36.750Z,26.75
2022-09-09T01:11:05.519Z,27.55
2022-09-09T01:13:36.754Z,27.42
2022-09-09T01:16:10.034Z,25.65
2022-09-09T01:18:41.769Z,25.77
2022-09-09T01:21:22.992Z,25.83
2022-09-09T01:24:15.901Z,24.80
2022-09-09T01:26:45.973Z,23.70
2022-09-09T01:29:15.787Z,24.23
2022-09-09T01:31:54.029Z,23.15
2022-09-09T01:34:23.371Z,22.77
2022-09-09T01:36:59.115Z,23.33
2022-09-09T01:39:27.979Z,23.15
2022-09-09T01:41:58.794Z,22.58
2022-09-09T01:44:27.861Z,23.02
2022-09-09T01:46:56.000Z,23.10
2022-09-09T01:49:24.491Z,21.50
2022-09-09T01:51:56.077Z,22.50
2022-09-09T01:54:28.131Z,22.55
2022-09-09T01:57:09.166Z,21.98
2022-09-09T01:59:54.980Z,22.08
2022-09-09T02:02:29.092Z,21.98
2022-09-09T02:05:04.457Z,23.08
2022-09-09T02:07:40.884Z,22.27
2022-09-09T02:10:13.317Z,22.38
2022-09-09T02:12:49.033Z,22.17
2022-09-09T02:15:23.652Z,21.77
2022-09-09T02:17:54.082Z,21.63
2022-09-09T02:20:25.212Z,20.73
2022-09-09T02:22:55.309Z,20.27
2022-09-09T02:25:28.131Z,20.55
2022-09-09T02:27:59.186Z,21.00
2022-09-09T02:30:29.660Z,20.77
2022-09-09T02:33:00.461Z,20.05
2022-09-09T02:35:31.634Z,20.38
2022-09-09T02:38:04.268Z,20.15
2022-09-09T02:40:35.288Z,21.23
2022-09-09T02:43:05.035Z,20.85
2022-09-09T02:45:38.775Z,19.55
2022-09-09T02:48:16.175Z,19.27
2022-09-09T02:50:54.740Z,20.42
2022-09-09T02:53:26.606Z,20.80
2022-09-09T02:56:00.152Z,20.63
2022-09-09T02:58:30.068Z,21.77
2022-09-09T03:01:00.395Z,21.20
2022-09-09T03:03:28.572Z,21.92
2022-09-09T03:05:57.059Z,21.52
2022-09-09T03:08:25.287Z,20.55
2022-09-09T03:10:55.301Z,22.05
2022-09-09T03:13:23.278Z,21.80
2022-09-09T03:15:52.784Z,21.27
2022-09-09T03:18:20.679Z,20.75
2022-09-09T03:20:49.952Z,20.92
2022-09-09T03:23:17.906Z,20.95
2022-09-09T03:25:49.941Z,19.55
2022-09-09T03:28:18.249Z,21.38
2022-09-09T03:30:46.175Z,21.85
2022-09-09T03:33:15.997Z,20.98
2022-09-09T03:35:49.835Z,20.65
2022-09-09T03:38:18.082Z,20.02
2022-09-09T03:40:52.197Z,20.80
2022-09-09T03:43:20.816Z,21.38
2022-09-09T03:45:49.404Z,20.35
2022-09-09T03:48:19.826Z,19.02
2022-09-09T03:50:48.252Z,19.85
2022-09-09T03:53:17.485Z,20.10
2022-09-09T03:55:46.600Z,19.20
2022-09-09T03:58:15.790Z,21.00
2022-09-09T04:00:46.280Z,20.13
2022-09-09T04:03:14.579Z,19.23
2022-09-09T04:05:44.070Z,20.75
2022-09-09T04:08:12.424Z,20.63
2022-09-09T04:10:40.414Z,21.67
2022-09-09T04:13:08.344Z,20.67
2022-09-09T04:15:37.634Z,21.48
2022-09-09T04:18:07.065Z,20.83
2022-09-09T04:20:35.128Z,23.15
2022-09-09T04:23:04.543Z,23.48
2022-09-09T04:25:32.675Z,22.60
2022-09-09T04:28:00.708Z,23.05
2022-09-09T04:30:29.390Z,23.55
2022-09-09T04:32:58.463Z,23.15
2022-09-09T04:35:28.112Z,22.77
2022-09-09T04:37:56.074Z,22.58
2022-09-09T04:40:25.866Z,23.23
2022-09-09T04:42:53.886Z,23.08
2022-09-09T04:45:21.802Z,23.27
2022-09-09T04:47:50.157Z,22.13
2022-09-09T04:50:18.325Z,22.42
2022-09-09T04:52:46.325Z,22.55
2022-09-09T04:55:14.705Z,22.77
2022-09-09T04:57:44.177Z,22.60
2022-09-09T05:00:14.643Z,22.30
2022-09-09T05:02:43.567Z,22.70
2022-09-09T05:05:12.321Z,22.45
2022-09-09T05:07:40.429Z,22.42
2022-09-09T05:10:09.053Z,22.85
2022-09-09T05:12:37.052Z,24.83
2022-09-09T05:15:08.189Z,22.83
2022-09-09T05:17:36.209Z,22.55
2022-09-09T05:20:09.149Z,22.75
2022-09-09T05:22:38.631Z,22.48
2022-09-09T05:25:07.510Z,22.73
2022-09-09T05:27:36.164Z,22.35
2022-09-09T05:30:05.648Z,21.58
2022-09-09T05:32:35.214Z,21.63
2022-09-09T05:35:04.054Z,21.27
2022-09-09T05:37:33.643Z,21.52
2022-09-09T05:40:02.035Z,20.88
2022-09-09T05:42:32.916Z,21.13
2022-09-09T05:45:00.991Z,20.50
2022-09-09T05:47:29.808Z,19.92
2022-09-09T05:49:59.140Z,19.73
2022-09-09T05:52:28.172Z,20.30
2022-09-09T05:54:58.043Z,19.25
2022-09-09T05:57:26.213Z,19.85
2022-09-09T05:59:54.772Z,19.60
2022-09-09T06:02:22.885Z,19.50
2022-09-09T06:04:51.253Z,20.58
2022-09-09T06:07:21.345Z,20.50
2022-09-09T06:09:49.484Z,19.88
2022-09-09T06:12:17.538Z,20.63
2022-09-09T06:14:46.503Z,21.00
2022-09-09T06:17:16.236Z,20.50
2022-09-09T06:19:44.184Z,21.13
2022-09-09T06:22:13.075Z,19.00
2022-09-09T06:24:42.502Z,19.38
2022-09-09T06:27:11.775Z,20.88
2022-09-09T06:29:40.334Z,21.02
2022-09-09T06:32:09.526Z,20.77
2022-09-09T06:34:37.700Z,20.77
2022-09-09T06:37:07.323Z,20.52
2022-09-09T06:39:36.187Z,21.15
2022-09-09T06:42:05.830Z,21.67
2022-09-09T06:44:35.517Z,21.13
2022-09-09T06:47:03.858Z,23.27
2022-09-09T06:49:32.173Z,21.70
2022-09-09T06:52:00.237Z,21.45
2022-09-09T06:54:29.610Z,21.20
2022-09-09T06:56:57.657Z,20.77
2022-09-09T06:59:27.112Z,20.55
2022-09-09T07:01:56.551Z,21.52
2022-09-09T07:04:24.603Z,20.70
2022-09-09T07:06:53.532Z,21.08
2022-09-09T07:09:22.618Z,22.95
2022-09-09T07:11:53.759Z,21.70
2022-09-09T07:14:23.047Z,21.33
2022-09-09T07:16:58.924Z,22.27
2022-09-09T07:19:27.894Z,21.63
2022-09-09T07:21:55.802Z,23.27
2022-09-09T07:24:24.047Z,21.63
2022-09-09T07:26:53.169Z,22.25
2022-09-09T07:29:21.458Z,22.77
2022-09-09T07:31:49.804Z,22.38
2022-09-09T07:34:19.417Z,23.52
2022-09-09T07:36:47.740Z,23.10
2022-09-09T07:39:18.404Z,23.88
2022-09-09T07:41:48.318Z,23.48
2022-09-09T07:44:18.033Z,23.40
2022-09-09T07:46:47.218Z,22.77
2022-09-09T07:49:16.082Z,22.10
2022-09-09T07:51:49.116Z,23.25
2022-09-09T07:54:21.050Z,23.35
2022-09-09T07:56:50.529Z,23.60
2022-09-09T07:59:19.587Z,23.92
2022-09-09T08:01:50.192Z,22.67
2022-09-09T08:04:20.335Z,21.40
2022-09-09T08:06:51.713Z,23.55
2022-09-09T08:09:20.142Z,22.55
2022-09-09T08:11:48.657Z,21.55
2022-09-09T08:14:17.203Z,20.83
2022-09-09T08:16:48.002Z,19.52
2022-09-09T08:19:17.126Z,20.73
2022-09-09T08:21:51.011Z,20.83
2022-09-09T08:24:20.638Z,22.15
2022-09-09T08:26:50.664Z,20.88
2022-09-09T08:29:19.212Z,21.63
2022-09-09T08:31:48.975Z,20.83
2022-09-09T08:34:18.782Z,21.10
2022-09-09T08:36:49.793Z,21.00
2022-09-09T08:39:19.945Z,21.35
2022-09-09T08:42:07.693Z,23.48
2022-09-09T08:44:49.970Z,22.00
2022-09-09T08:47:24.734Z,22.00
2022-09-09T08:50:04.383Z,22.33
2022-09-09T08:52:40.296Z,23.70
2022-09-09T08:55:23.596Z,23.15
2022-09-09T08:57:54.676Z,23.05
2022-09-09T09:00:23.345Z,23.20
2022-09-09T09:03:03.416Z,24.42
2022-09-09T09:05:38.064Z,23.52
2022-09-09T09:08:18.956Z,22.92
2022-09-09T09:10:49.989Z,22.77
2022-09-09T09:13:22.129Z,23.30
2022-09-09T09:15:54.782Z,23.48
2022-09-09T09:18:22.781Z,21.65
2022-09-09T09:20:57.524Z,22.77
2022-09-09T09:23:31.938Z,22.73
2022-09-09T09:26:02.935Z,23.70
2022-09-09T09:28:33.817Z,22.92
2022-09-09T09:31:06.837Z,21.38
2022-09-09T09:33:42.065Z,25.70
2022-09-09T09:36:10.488Z,27.35
2022-09-09T09:41:33.813Z,27.77
2022-09-09T09:44:02.787Z,27.05
2022-09-09T09:46:32.438Z,27.23
2022-09-09T09:49:01.214Z,28.08
2022-09-09T09:51:30.613Z,27.48
2022-09-09T09:54:15.970Z,25.85
2022-09-09T09:56:45.806Z,26.90
2022-09-09T09:59:38.616Z,27.30
2022-09-09T10:02:22.048Z,28.27
2022-09-09T10:04:50.041Z,30.77
2022-09-09T10:07:21.633Z,32.30
2022-09-09T10:09:56.901Z,32.38
2022-09-09T10:12:36.543Z,32.95
2022-09-09T10:15:16.817Z,32.33
2022-09-09T10:17:56.201Z,32.75
2022-09-09T10:20:35.246Z,31.45
2022-09-09T10:23:16.083Z,32.47
2022-09-09T10:26:12.515Z,30.60
2022-09-09T10:29:10.650Z,29.45
2022-09-09T10:31:50.535Z,29.02
2022-09-09T10:34:31.551Z,29.65
2022-09-09T10:37:00.347Z,25.15
2022-09-09T10:39:42.245Z,27.27
2022-09-09T10:42:18.383Z,27.23
2022-09-09T10:45:06.753Z,27.00
2022-09-09T10:47:58.356Z,27.73
2022-09-09T10:51:07.330Z,26.52
2022-09-09T10:53:41.114Z,25.52
2022-09-09T10:56:15.616Z,26.95
2022-09-09T10:58:51.283Z,26.73
2022-09-09T11:01:23.559Z,25.83
2022-09-09T11:04:08.216Z,26.25
2022-09-09T11:06:43.460Z,26.30
2022-09-09T11:09:18.697Z,28.52
2022-09-09T11:11:52.620Z,28.45
2022-09-09T11:14:28.327Z,29.15
2022-09-09T11:17:01.359Z,27.05
2022-09-09T11:19:35.121Z,26.80
2022-09-09T11:22:05.969Z,27.10
2022-09-09T11:24:38.973Z,27.05
2022-09-09T11:27:16.139Z,27.63
2022-09-09T11:30:27.261Z,27.52
2022-09-09T11:33:42.374Z,29.77
2022-09-09T11:36:49.648Z,27.88
2022-09-09T11:39:59.652Z,30.55
2022-09-09T11:42:27.754Z,33.45
2022-09-09T11:44:58.357Z,32.85
2022-09-09T11:47:30.896Z,35.60
2022-09-09T11:50:28.908Z,37.88
2022-09-09T11:53:08.280Z,39.35
2022-09-09T11:55:37.947Z,38.50
2022-09-09T11:58:07.859Z,38.08
2022-09-09T12:00:39.793Z,37.92
2022-09-09T12:03:28.555Z,37.83
2022-09-09T12:05:58.817Z,36.97
2022-09-09T12:08:30.395Z,37.97
2022-09-09T12:11:01.294Z,37.15
2022-09-09T12:13:29.683Z,36.17
2022-09-09T12:16:03.560Z,34.58
2022-09-09T12:18:35.949Z,34.15
2022-09-09T12:21:09.912Z,33.95
2022-09-09T12:23:45.325Z,32.10
2022-09-09T12:26:29.249Z,32.20
2022-09-09T12:29:14.669Z,32.25
2022-09-09T12:31:48.769Z,31.60
2022-09-09T12:34:27.093Z,32.70
2022-09-09T12:37:00.913Z,29.95
2022-09-09T12:39:34.875Z,30.83
2022-09-09T12:42:04.907Z,30.10
2022-09-09T12:44:33.544Z,30.48
2022-09-09T12:47:05.515Z,32.15
2022-09-09T12:49:37.383Z,30.65
2022-09-09T12:52:08.883Z,30.77
2022-09-09T12:54:38.534Z,30.55
2022-09-09T12:57:07.454Z,29.70
2022-09-09T12:59:40.909Z,29.73
2022-09-09T13:02:21.306Z,29.65
2022-09-09T13:04:51.485Z,28.38
2022-09-09T13:07:20.832Z,26.92
2022-09-09T13:09:50.664Z,25.42
2022-09-09T13:12:21.645Z,24.63
2022-09-09T13:14:52.637Z,23.85
2022-09-09T13:17:24.920Z,25.35
2022-09-09T13:19:54.775Z,25.13
2022-09-09T13:22:28.928Z,27.33
2022-09-09T13:25:08.687Z,29.45
2022-09-09T13:27:42.700Z,31.27
2022-09-09T13:30:26.856Z,29.63
2022-09-09T13:33:08.693Z,27.38
2022-09-09T13:35:37.627Z,27.55
2022-09-09T13:38:12.114Z,26.98
2022-09-09T13:40:40.842Z,27.55
2022-09-09T13:43:25.003Z,30.92
2022-09-09T13:46:01.318Z,34.30
2022-09-09T13:48:32.802Z,33.50
2022-09-09T13:51:04.011Z,32.72
2022-09-09T13:53:31.904Z,32.10
2022-09-09T13:56:00.355Z,32.10
2022-09-09T13:58:28.269Z,31.05
2022-09-09T14:00:56.347Z,30.77
2022-09-09T14:03:24.279Z,31.17
2022-09-09T14:05:55.320Z,29.42
2022-09-09T14:08:26.819Z,27.98
2022-09-09T14:10:59.381Z,28.27
2022-09-09T14:13:27.547Z,26.90
2022-09-09T14:15:55.545Z,26.02
2022-09-09T14:18:26.455Z,25.83
2022-09-09T14:20:55.919Z,27.35
2022-09-09T14:23:25.453Z,25.85
2022-09-09T14:25:53.946Z,25.58
2022-09-09T14:28:34.307Z,25.73
2022-09-09T14:31:11.766Z,24.38
2022-09-09T14:33:39.811Z,25.25
2022-09-09T14:36:09.684Z,23.08
2022-09-09T14:38:40.823Z,23.23
2022-09-09T14:41:09.152Z,19.58
2022-09-09T14:43:37.109Z,18.90
2022-09-09T14:46:07.848Z,19.48
2022-09-09T14:48:36.176Z,19.95
2022-09-09T14:51:09.906Z,21.48
2022-09-09T14:53:38.900Z,20.58
2022-09-09T14:56:09.353Z,20.73
2022-09-09T14:58:38.911Z,19.88
2022-09-09T15:01:08.497Z,22.23
2022-09-09T15:03:36.573Z,19.70
2022-09-09T15:06:10.616Z,18.75
2022-09-09T15:08:42.392Z,19.02
2022-09-09T15:11:12.619Z,21.02
2022-09-09T15:13:42.360Z,19.50
2022-09-09T15:16:12.833Z,19.02
2022-09-09T15:18:43.913Z,18.73
2022-09-09T15:21:15.210Z,21.17
2022-09-09T15:23:43.897Z,22.13
2022-09-09T15:26:12.902Z,24.23
2022-09-09T15:28:41.028Z,25.23
2022-09-09T15:31:11.996Z,24.98
2022-09-09T15:33:40.532Z,27.63
2022-09-09T15:36:18.802Z,26.75
2022-09-09T15:38:47.360Z,31.83
2022-09-09T15:41:16.224Z,32.53
2022-09-09T15:43:49.718Z,34.20
2022-09-09T15:46:28.494Z,32.90
2022-09-09T15:48:57.717Z,34.08
2022-09-09T15:51:42.197Z,33.42
2022-09-09T15:54:13.378Z,33.42
2022-09-09T15:56:41.967Z,34.03
2022-09-09T15:59:10.660Z,34.05
2022-09-09T16:01:40.424Z,33.15
2022-09-09T16:04:08.652Z,34.65
2022-09-09T16:06:38.441Z,35.00
2022-09-09T16:09:07.784Z,34.03
2022-09-09T16:11:37.728Z,33.47
2022-09-09T16:14:06.399Z,32.75
2022-09-09T16:16:36.180Z,33.17
2022-09-09T16:19:07.232Z,31.20
2022-09-09T16:21:40.830Z,32.47
2022-09-09T16:24:10.552Z,32.90
2022-09-09T16:26:41.067Z,34.03
2022-09-09T16:29:09.852Z,33.50
2022-09-09T16:31:38.639Z,32.60
2022-09-09T16:34:06.784Z,32.03
2022-09-09T16:36:39.982Z,33.40
2022-09-09T16:39:10.485Z,31.85
2022-09-09T16:41:40.304Z,32.00
2022-09-09T16:44:09.585Z,27.70
2022-09-09T16:46:39.670Z,25.85
2022-09-09T16:49:09.742Z,24.27
2022-09-09T16:51:40.972Z,24.85
2022-09-09T16:54:14.892Z,24.90
2022-09-09T16:56:44.436Z,24.60
2022-09-09T16:59:15.294Z,25.23
2022-09-09T17:01:44.785Z,27.02
2022-09-09T17:04:17.257Z,28.73
2022-09-09T17:06:48.600Z,27.45
2022-09-09T17:09:16.932Z,27.83
2022-09-09T17:11:46.336Z,27.63
2022-09-09T17:14:18.912Z,28.60
2022-09-09T17:16:47.725Z,28.17
2022-09-09T17:19:16.259Z,27.63
2022-09-09T17:22:12.590Z,28.00
2022-09-09T17:24:39.478Z,29.17
2022-09-09T17:27:09.892Z,27.83
2022-09-09T17:29:37.865Z,28.48
2022-09-09T17:32:08.114Z,28.38
2022-09-09T17:34:36.765Z,29.70
2022-09-09T17:37:06.103Z,29.33
2022-09-09T17:39:34.359Z,29.42
2022-09-09T17:42:04.237Z,28.58
2022-09-09T17:44:33.433Z,28.15
2022-09-09T17:47:01.805Z,29.38
2022-09-09T17:49:32.665Z,28.33
2022-09-09T17:52:00.842Z,28.10
2022-09-09T17:54:29.176Z,27.40
2022-09-09T17:56:58.673Z,26.90
2022-09-09T17:59:28.161Z,25.58
2022-09-09T18:01:56.345Z,24.95
2022-09-09T18:04:24.695Z,25.70
2022-09-09T18:06:55.613Z,26.85
2022-09-09T18:09:26.437Z,26.27
2022-09-09T18:11:56.384Z,25.83
2022-09-09T18:14:26.644Z,25.55
2022-09-09T18:16:56.253Z,24.85
2022-09-09T18:19:27.118Z,24.52
2022-09-09T18:21:57.591Z,24.23
2022-09-09T18:24:28.504Z,25.33
2022-09-09T18:26:56.413Z,23.67
2022-09-09T18:29:25.537Z,24.42
2022-09-09T18:31:56.554Z,26.08
2022-09-09T18:34:30.112Z,24.77
2022-09-09T18:36:58.632Z,25.10
2022-09-09T18:39:29.287Z,25.35
2022-09-09T18:42:00.597Z,24.98
2022-09-09T18:44:31.392Z,25.17
2022-09-09T18:47:01.324Z,24.73
2022-09-09T18:49:29.901Z,26.25
2022-09-09T18:51:58.081Z,25.98
2022-09-09T18:54:29.755Z,25.80
2022-09-09T18:56:59.708Z,24.42
2022-09-09T18:59:28.543Z,25.75
2022-09-09T19:01:57.283Z,25.67
2022-09-09T19:04:28.028Z,25.55
2022-09-09T19:06:58.778Z,24.55
2022-09-09T19:09:28.795Z,26.05
2022-09-09T19:11:57.090Z,25.08
2022-09-09T19:14:25.441Z,26.38
2022-09-09T19:16:54.158Z,25.77
2022-09-09T19:19:24.131Z,25.98
2022-09-09T19:21:57.431Z,25.90
2022-09-09T19:24:27.413Z,23.98
2022-09-09T19:26:58.293Z,24.50
2022-09-09T19:29:28.778Z,24.52
2022-09-09T19:32:49.325Z,23.88
2022-09-09T19:34:47.616Z,24.70
2022-09-09T19:37:18.647Z,23.75
2022-09-09T19:39:47.085Z,23.58
2022-09-09T19:42:15.267Z,24.80
2022-09-09T19:44:43.299Z,25.95
2022-09-09T19:47:12.956Z,24.67
2022-09-09T19:49:42.956Z,23.92
2022-09-09T19:52:14.606Z,23.20
2022-09-09T19:54:44.579Z,24.13
2022-09-09T19:57:12.758Z,23.25
2022-09-09T19:59:40.820Z,26.27
2022-09-09T20:02:10.629Z,26.90
2022-09-09T20:04:38.774Z,27.25
2022-09-09T20:07:06.928Z,24.73
2022-09-09T20:09:35.165Z,24.30
2022-09-09T20:12:04.899Z,25.90
2022-09-09T20:14:37.262Z,25.17
2022-09-09T20:17:07.245Z,25.58
2022-09-09T20:19:35.168Z,25.55
2022-09-09T20:22:03.188Z,24.30
2022-09-09T20:24:31.201Z,25.50
2022-09-09T20:26:59.184Z,24.48
2022-09-09T20:29:28.642Z,25.05
2022-09-09T20:31:56.641Z,24.92
2022-09-09T20:34:27.221Z,23.65
2022-09-09T20:36:57.170Z,24.42
2022-09-09T20:39:25.524Z,25.15
2022-09-09T20:41:53.634Z,24.25
2022-09-09T20:44:24.497Z,24.50
2022-09-09T20:46:57.082Z,24.85
2022-09-09T20:49:25.680Z,24.58
2022-09-09T20:51:54.355Z,24.00
2022-09-09T20:54:24.256Z,26.08
2022-09-09T20:56:54.379Z,25.25
2022-09-09T20:59:24.249Z,24.70
2022-09-09T21:01:53.943Z,24.77
2022-09-09T21:04:22.944Z,25.35
2022-09-09T21:06:52.731Z,24.92
2022-09-09T21:09:22.848Z,25.77
2022-09-09T21:11:50.852Z,25.02
2022-09-09T21:14:18.880Z,24.75
2022-09-09T21:16:46.883Z,25.40
2022-09-09T21:19:16.309Z,25.27
2022-09-09T21:21:45.394Z,24.40
2022-09-09T21:24:13.391Z,24.60
2022-09-09T21:26:41.367Z,23.85
2022-09-09T21:29:10.643Z,24.30
2022-09-09T21:31:38.639Z,24.10
2022-09-09T21:34:07.210Z,24.20
2022-09-09T21:36:37.273Z,23.63
2022-09-09T21:39:06.418Z,23.90
2022-09-09T21:41:34.334Z,23.75
2022-09-09T21:44:02.589Z,23.73
2022-09-09T21:46:30.567Z,23.60
2022-09-09T21:49:02.385Z,24.40
2022-09-09T21:51:30.349Z,23.98
2022-09-09T21:53:59.717Z,23.70
2022-09-09T21:56:27.812Z,24.45
2022-09-09T21:58:57.606Z,24.52
2022-09-09T22:01:26.565Z,24.25
2022-09-09T22:03:54.820Z,25.60
2022-09-09T22:06:22.831Z,24.77
2022-09-09T22:08:51.445Z,24.55
2022-09-09T22:11:22.961Z,23.67
2022-09-09T22:13:51.025Z,24.77
2022-09-09T22:16:21.809Z,25.58
2022-09-09T22:18:53.562Z,25.38
2022-09-09T22:21:23.062Z,26.65
2022-09-09T22:23:54.805Z,25.73
2022-09-09T22:26:24.991Z,25.13
2022-09-09T22:28:53.900Z,25.67
2022-09-09T22:31:23.029Z,24.83
2022-09-09T22:33:52.905Z,24.85
2022-09-09T22:36:21.357Z,25.20
2022-09-09T22:38:50.007Z,24.45
2022-09-09T22:41:18.837Z,24.85
2022-09-09T22:43:48.611Z,24.95
2022-09-09T22:46:16.746Z,25.65
2022-09-09T22:48:44.965Z,25.45
2022-09-09T22:51:17.198Z,24.98
2022-09-09T22:53:46.381Z,24.67
2022-09-09T22:56:17.178Z,24.60
2022-09-09T22:58:47.289Z,24.67
2022-09-09T23:01:17.652Z,25.17
2022-09-09T23:03:47.110Z,25.65
2022-09-09T23:06:21.666Z,24.95
2022-09-09T23:08:51.882Z,24.10
2022-09-09T23:11:20.529Z,23.73
2022-09-09T23:13:53.020Z,22.83
2022-09-09T23:16:23.013Z,22.88
2022-09-09T23:18:52.258Z,22.88
2022-09-09T23:21:21.017Z,21.50
2022-09-09T23:23:49.252Z,22.83
2022-09-09T23:26:21.032Z,22.63
2022-09-09T23:28:51.830Z,22.48
2022-09-09T23:31:22.724Z,23.13
2022-09-09T23:33:50.810Z,23.27
2022-09-09T23:36:21.108Z,22.15
2022-09-09T23:38:49.740Z,22.48
2022-09-09T23:41:20.879Z,22.52
2022-09-09T23:43:50.757Z,22.60
2022-09-09T23:46:21.231Z,23.20
2022-09-09T23:48:51.668Z,23.70
2022-09-09T23:51:23.743Z,23.92
2022-09-09T23:53:53.186Z,22.70
2022-09-09T23:56:21.566Z,22.23
2022-09-09T23:58:51.960Z,21.98
